sensor_id;sensor_type;location;lat;lon;timestamp;P1;durP1;ratioP1;P2;durP2;ratioP2
22904;SDS011;11619;50.140;8.518;2024-01-15T00:01:36;33.80;;;18.33;;
22904;SDS011;11619;50.140;8.518;2024-01-15T00:04:03;34.63;;;18.15;;
22904;SDS011;11619;50.140;8.518;2024-01-15T00:06:29;33.67;;;17.70;;
22904;SDS011;11619;50.140;8.518;2024-01-15T00:08:56;33.15;;;17.63;;
22904;SDS011;11619;50.140;8.518;2024-01-15T00:11:24;29.27;;;16.60;;
22904;SDS011;11619;50.140;8.518;2024-01-15T00:13:50;36.65;;;17.05;;
22904;SDS011;11619;50.140;8.518;2024-01-15T00:16:18;30.75;;;17.67;;
22904;SDS011;11619;50.140;8.518;2024-01-15T00:18:44;36.28;;;18.83;;
22904;SDS011;11619;50.140;8.518;2024-01-15T00:21:11;35.90;;;18.25;;
22904;SDS011;11619;50.140;8.518;2024-01-15T00:23:39;32.28;;;18.05;;
22904;SDS011;11619;50.140;8.518;2024-01-15T00:26:08;32.28;;;17.35;;
22904;SDS011;11619;50.140;8.518;2024-01-15T00:28:36;30.40;;;18.05;;
22904;SDS011;11619;50.140;8.518;2024-01-15T00:31:06;34.88;;;17.45;;
22904;SDS011;11619;50.140;8.518;2024-01-15T00:33:33;31.55;;;17.40;;
22904;SDS011;11619;50.140;8.518;2024-01-15T00:36:00;31.73;;;17.08;;
22904;SDS011;11619;50.140;8.518;2024-01-15T00:38:26;34.05;;;17.80;;
22904;SDS011;11619;50.140;8.518;2024-01-15T00:40:54;30.70;;;17.83;;
22904;SDS011;11619;50.140;8.518;2024-01-15T00:43:20;38.63;;;19.75;;
22904;SDS011;11619;50.140;8.518;2024-01-15T00:45:47;36.55;;;18.35;;
22904;SDS011;11619;50.140;8.518;2024-01-15T00:48:13;30.58;;;17.33;;
22904;SDS011;11619;50.140;8.518;2024-01-15T00:50:40;31.83;;;17.27;;
22904;SDS011;11619;50.140;8.518;2024-01-15T00:53:06;34.75;;;16.63;;
22904;SDS011;11619;50.140;8.518;2024-01-15T00:55:33;39.75;;;17.73;;
22904;SDS011;11619;50.140;8.518;2024-01-15T00:57:59;31.02;;;17.33;;
22904;SDS011;11619;50.140;8.518;2024-01-15T01:00:26;35.10;;;18.23;;
22904;SDS011;11619;50.140;8.518;2024-01-15T01:02:53;31.48;;;16.58;;
22904;SDS011;11619;50.140;8.518;2024-01-15T01:05:19;36.70;;;17.52;;
22904;SDS011;11619;50.140;8.518;2024-01-15T01:07:46;33.70;;;16.80;;
22904;SDS011;11619;50.140;8.518;2024-01-15T01:10:12;34.47;;;17.55;;
22904;SDS011;11619;50.140;8.518;2024-01-15T01:12:39;35.13;;;17.90;;
22904;SDS011;11619;50.140;8.518;2024-01-15T01:15:05;34.65;;;17.45;;
22904;SDS011;11619;50.140;8.518;2024-01-15T01:17:32;36.40;;;18.33;;
22904;SDS011;11619;50.140;8.518;2024-01-15T01:19:59;33.90;;;17.73;;
22904;SDS011;11619;50.140;8.518;2024-01-15T01:22:26;35.05;;;16.60;;
22904;SDS011;11619;50.140;8.518;2024-01-15T01:24:52;42.40;;;18.80;;
22904;SDS011;11619;50.140;8.518;2024-01-15T01:27:19;36.47;;;18.73;;
22904;SDS011;11619;50.140;8.518;2024-01-15T01:29:45;33.90;;;17.33;;
22904;SDS011;11619;50.140;8.518;2024-01-15T01:32:11;32.10;;;17.15;;
22904;SDS011;11619;50.140;8.518;2024-01-15T01:34:41;26.15;;;15.60;;
22904;SDS011;11619;50.140;8.518;2024-01-15T01:37:10;33.75;;;18.02;;
22904;SDS011;11619;50.140;8.518;2024-01-15T01:39:40;33.53;;;17.67;;
22904;SDS011;11619;50.140;8.518;2024-01-15T01:42:07;35.85;;;17.50;;
22904;SDS011;11619;50.140;8.518;2024-01-15T01:44:34;35.92;;;17.63;;
22904;SDS011;11619;50.140;8.518;2024-01-15T01:47:00;34.03;;;17.85;;
22904;SDS011;11619;50.140;8.518;2024-01-15T01:49:27;35.47;;;17.48;;
22904;SDS011;11619;50.140;8.518;2024-01-15T01:51:57;29.50;;;16.38;;
22904;SDS011;11619;50.140;8.518;2024-01-15T01:54:26;35.65;;;17.55;;
22904;SDS011;11619;50.140;8.518;2024-01-15T01:56:54;30.83;;;17.83;;
22904;SDS011;11619;50.140;8.518;2024-01-15T01:59:20;33.88;;;16.45;;
22904;SDS011;11619;50.140;8.518;2024-01-15T02:01:49;37.70;;;17.40;;
22904;SDS011;11619;50.140;8.518;2024-01-15T02:04:16;34.45;;;16.55;;
22904;SDS011;11619;50.140;8.518;2024-01-15T02:06:47;33.38;;;17.23;;
22904;SDS011;11619;50.140;8.518;2024-01-15T02:09:14;36.67;;;17.88;;
22904;SDS011;11619;50.140;8.518;2024-01-15T02:11:41;33.97;;;17.85;;
22904;SDS011;11619;50.140;8.518;2024-01-15T02:14:08;34.75;;;16.80;;
22904;SDS011;11619;50.140;8.518;2024-01-15T02:16:35;35.45;;;17.50;;
22904;SDS011;11619;50.140;8.518;2024-01-15T02:19:02;34.60;;;17.17;;
22904;SDS011;11619;50.140;8.518;2024-01-15T02:21:28;35.75;;;16.80;;
22904;SDS011;11619;50.140;8.518;2024-01-15T02:23:55;35.53;;;17.55;;
22904;SDS011;11619;50.140;8.518;2024-01-15T02:26:22;28.92;;;16.23;;
22904;SDS011;11619;50.140;8.518;2024-01-15T02:28:49;34.40;;;17.67;;
22904;SDS011;11619;50.140;8.518;2024-01-15T02:31:17;36.15;;;17.95;;
22904;SDS011;11619;50.140;8.518;2024-01-15T02:33:45;29.13;;;15.68;;
22904;SDS011;11619;50.140;8.518;2024-01-15T02:36:15;32.70;;;16.38;;
22904;SDS011;11619;50.140;8.518;2024-01-15T02:38:42;35.33;;;17.38;;
22904;SDS011;11619;50.140;8.518;2024-01-15T02:41:08;31.77;;;16.50;;
22904;SDS011;11619;50.140;8.518;2024-01-15T02:43:35;32.45;;;16.70;;
22904;SDS011;11619;50.140;8.518;2024-01-15T02:46:01;31.65;;;17.15;;
22904;SDS011;11619;50.140;8.518;2024-01-15T02:48:28;31.85;;;16.83;;
22904;SDS011;11619;50.140;8.518;2024-01-15T02:50:54;30.00;;;16.88;;
22904;SDS011;11619;50.140;8.518;2024-01-15T02:53:21;29.02;;;16.95;;
22904;SDS011;11619;50.140;8.518;2024-01-15T02:55:47;31.58;;;16.73;;
22904;SDS011;11619;50.140;8.518;2024-01-15T02:58:14;32.17;;;17.90;;
22904;SDS011;11619;50.140;8.518;2024-01-15T03:00:40;29.08;;;15.90;;
22904;SDS011;11619;50.140;8.518;2024-01-15T03:03:07;35.92;;;18.27;;
22904;SDS011;11619;50.140;8.518;2024-01-15T03:05:34;36.53;;;18.05;;
22904;SDS011;11619;50.140;8.518;2024-01-15T03:08:01;31.08;;;16.55;;
22904;SDS011;11619;50.140;8.518;2024-01-15T03:10:27;33.72;;;17.23;;
22904;SDS011;11619;50.140;8.518;2024-01-15T03:12:54;31.00;;;16.42;;
22904;SDS011;11619;50.140;8.518;2024-01-15T03:15:22;31.90;;;16.77;;
22904;SDS011;11619;50.140;8.518;2024-01-15T03:17:48;29.52;;;16.95;;
22904;SDS011;11619;50.140;8.518;2024-01-15T03:20:15;33.45;;;17.35;;
22904;SDS011;11619;50.140;8.518;2024-01-15T03:22:41;30.90;;;16.63;;
22904;SDS011;11619;50.140;8.518;2024-01-15T03:25:08;33.22;;;16.08;;
22904;SDS011;11619;50.140;8.518;2024-01-15T03:27:34;32.47;;;16.95;;
22904;SDS011;11619;50.140;8.518;2024-01-15T03:30:01;27.98;;;15.50;;
22904;SDS011;11619;50.140;8.518;2024-01-15T03:32:29;30.35;;;15.57;;
22904;SDS011;11619;50.140;8.518;2024-01-15T03:34:55;31.25;;;15.77;;
22904;SDS011;11619;50.140;8.518;2024-01-15T03:37:22;31.23;;;16.27;;
22904;SDS011;11619;50.140;8.518;2024-01-15T03:39:48;34.90;;;16.05;;
22904;SDS011;11619;50.140;8.518;2024-01-15T03:42:15;30.70;;;15.73;;
22904;SDS011;11619;50.140;8.518;2024-01-15T03:44:42;33.10;;;15.95;;
22904;SDS011;11619;50.140;8.518;2024-01-15T03:47:08;29.85;;;15.02;;
22904;SDS011;11619;50.140;8.518;2024-01-15T03:49:35;28.17;;;14.73;;
22904;SDS011;11619;50.140;8.518;2024-01-15T03:52:01;30.55;;;16.90;;
22904;SDS011;11619;50.140;8.518;2024-01-15T03:54:28;34.15;;;16.60;;
22904;SDS011;11619;50.140;8.518;2024-01-15T03:56:54;28.33;;;15.63;;
22904;SDS011;11619;50.140;8.518;2024-01-15T03:59:21;30.45;;;16.08;;
22904;SDS011;11619;50.140;8.518;2024-01-15T04:01:50;31.95;;;15.68;;
22904;SDS011;11619;50.140;8.518;2024-01-15T04:04:17;29.75;;;15.40;;
22904;SDS011;11619;50.140;8.518;2024-01-15T04:06:44;33.13;;;16.40;;
22904;SDS011;11619;50.140;8.518;2024-01-15T04:09:12;26.17;;;15.68;;
22904;SDS011;11619;50.140;8.518;2024-01-15T04:11:39;30.95;;;14.38;;
22904;SDS011;11619;50.140;8.518;2024-01-15T04:14:06;29.17;;;15.27;;
22904;SDS011;11619;50.140;8.518;2024-01-15T04:16:33;28.25;;;14.48;;
22904;SDS011;11619;50.140;8.518;2024-01-15T04:18:59;28.70;;;15.15;;
22904;SDS011;11619;50.140;8.518;2024-01-15T04:21:26;29.38;;;14.40;;
22904;SDS011;11619;50.140;8.518;2024-01-15T04:23:52;28.63;;;15.63;;
22904;SDS011;11619;50.140;8.518;2024-01-15T04:26:19;28.58;;;14.60;;
22904;SDS011;11619;50.140;8.518;2024-01-15T04:28:45;25.85;;;14.38;;
22904;SDS011;11619;50.140;8.518;2024-01-15T04:31:20;29.42;;;15.15;;
22904;SDS011;11619;50.140;8.518;2024-01-15T04:33:48;28.85;;;14.35;;
22904;SDS011;11619;50.140;8.518;2024-01-15T04:36:15;28.83;;;14.32;;
22904;SDS011;11619;50.140;8.518;2024-01-15T04:38:41;30.20;;;14.95;;
22904;SDS011;11619;50.140;8.518;2024-01-15T04:41:14;26.45;;;14.15;;
22904;SDS011;11619;50.140;8.518;2024-01-15T04:43:42;28.10;;;15.07;;
22904;SDS011;11619;50.140;8.518;2024-01-15T04:46:09;25.33;;;15.00;;
22904;SDS011;11619;50.140;8.518;2024-01-15T04:48:36;28.17;;;14.50;;
22904;SDS011;11619;50.140;8.518;2024-01-15T04:51:08;27.75;;;14.57;;
22904;SDS011;11619;50.140;8.518;2024-01-15T04:53:35;30.15;;;14.00;;
22904;SDS011;11619;50.140;8.518;2024-01-15T04:56:01;29.52;;;14.73;;
22904;SDS011;11619;50.140;8.518;2024-01-15T04:58:28;25.95;;;14.00;;
22904;SDS011;11619;50.140;8.518;2024-01-15T05:00:55;28.13;;;14.15;;
22904;SDS011;11619;50.140;8.518;2024-01-15T05:03:22;23.88;;;13.48;;
22904;SDS011;11619;50.140;8.518;2024-01-15T05:05:49;25.75;;;14.57;;
22904;SDS011;11619;50.140;8.518;2024-01-15T05:08:15;28.88;;;15.00;;
22904;SDS011;11619;50.140;8.518;2024-01-15T05:10:42;23.90;;;14.55;;
22904;SDS011;11619;50.140;8.518;2024-01-15T05:13:08;30.98;;;14.57;;
22904;SDS011;11619;50.140;8.518;2024-01-15T05:15:35;25.55;;;13.95;;
22904;SDS011;11619;50.140;8.518;2024-01-15T05:18:01;30.25;;;14.90;;
22904;SDS011;11619;50.140;8.518;2024-01-15T05:20:28;23.10;;;13.27;;
22904;SDS011;11619;50.140;8.518;2024-01-15T05:22:54;24.13;;;13.15;;
22904;SDS011;11619;50.140;8.518;2024-01-15T05:25:20;30.70;;;14.57;;
22904;SDS011;11619;50.140;8.518;2024-01-15T05:27:47;29.33;;;14.88;;
22904;SDS011;11619;50.140;8.518;2024-01-15T05:30:13;26.83;;;14.15;;
22904;SDS011;11619;50.140;8.518;2024-01-15T05:32:40;26.52;;;13.88;;
22904;SDS011;11619;50.140;8.518;2024-01-15T05:35:07;34.50;;;15.50;;
22904;SDS011;11619;50.140;8.518;2024-01-15T05:37:33;27.63;;;13.90;;
22904;SDS011;11619;50.140;8.518;2024-01-15T05:40:00;27.42;;;13.52;;
22904;SDS011;11619;50.140;8.518;2024-01-15T05:42:27;28.90;;;13.82;;
22904;SDS011;11619;50.140;8.518;2024-01-15T05:44:56;28.45;;;14.13;;
22904;SDS011;11619;50.140;8.518;2024-01-15T05:47:22;24.75;;;14.15;;
22904;SDS011;11619;50.140;8.518;2024-01-15T05:49:49;25.42;;;14.85;;
22904;SDS011;11619;50.140;8.518;2024-01-15T05:52:16;27.10;;;13.88;;
22904;SDS011;11619;50.140;8.518;2024-01-15T05:54:43;31.08;;;14.77;;
22904;SDS011;11619;50.140;8.518;2024-01-15T05:57:09;25.23;;;13.93;;
22904;SDS011;11619;50.140;8.518;2024-01-15T05:59:36;27.73;;;14.77;;
22904;SDS011;11619;50.140;8.518;2024-01-15T06:02:02;26.98;;;13.82;;
22904;SDS011;11619;50.140;8.518;2024-01-15T06:04:29;30.60;;;15.32;;
22904;SDS011;11619;50.140;8.518;2024-01-15T06:06:56;27.45;;;14.93;;
22904;SDS011;11619;50.140;8.518;2024-01-15T06:09:22;27.98;;;15.13;;
22904;SDS011;11619;50.140;8.518;2024-01-15T06:11:49;27.08;;;15.07;;
22904;SDS011;11619;50.140;8.518;2024-01-15T06:14:15;25.55;;;14.50;;
22904;SDS011;11619;50.140;8.518;2024-01-15T06:16:42;31.40;;;15.73;;
22904;SDS011;11619;50.140;8.518;2024-01-15T06:19:08;31.45;;;16.10;;
22904;SDS011;11619;50.140;8.518;2024-01-15T06:21:35;27.63;;;15.23;;
22904;SDS011;11619;50.140;8.518;2024-01-15T06:24:01;32.30;;;16.10;;
22904;SDS011;11619;50.140;8.518;2024-01-15T06:26:28;28.65;;;15.13;;
22904;SDS011;11619;50.140;8.518;2024-01-15T06:28:54;34.08;;;16.08;;
22904;SDS011;11619;50.140;8.518;2024-01-15T06:31:21;29.73;;;15.00;;
22904;SDS011;11619;50.140;8.518;2024-01-15T06:33:48;28.27;;;15.10;;
22904;SDS011;11619;50.140;8.518;2024-01-15T06:36:15;33.05;;;16.25;;
22904;SDS011;11619;50.140;8.518;2024-01-15T06:38:44;33.17;;;16.45;;
22904;SDS011;11619;50.140;8.518;2024-01-15T06:41:11;31.80;;;16.15;;
22904;SDS011;11619;50.140;8.518;2024-01-15T06:43:38;34.15;;;17.65;;
22904;SDS011;11619;50.140;8.518;2024-01-15T06:46:05;32.15;;;17.38;;
22904;SDS011;11619;50.140;8.518;2024-01-15T06:48:33;33.03;;;16.15;;
22904;SDS011;11619;50.140;8.518;2024-01-15T06:51:00;33.65;;;15.98;;
22904;SDS011;11619;50.140;8.518;2024-01-15T06:53:28;32.85;;;17.77;;
22904;SDS011;11619;50.140;8.518;2024-01-15T06:55:54;34.05;;;16.98;;
22904;SDS011;11619;50.140;8.518;2024-01-15T06:58:21;32.78;;;17.75;;
22904;SDS011;11619;50.140;8.518;2024-01-15T07:00:47;32.88;;;17.20;;
22904;SDS011;11619;50.140;8.518;2024-01-15T07:03:14;29.98;;;15.93;;
22904;SDS011;11619;50.140;8.518;2024-01-15T07:05:41;35.50;;;17.27;;
22904;SDS011;11619;50.140;8.518;2024-01-15T07:08:07;38.25;;;17.25;;
22904;SDS011;11619;50.140;8.518;2024-01-15T07:10:35;32.30;;;16.67;;
22904;SDS011;11619;50.140;8.518;2024-01-15T07:13:03;35.75;;;17.85;;
22904;SDS011;11619;50.140;8.518;2024-01-15T07:15:30;33.33;;;18.40;;
22904;SDS011;11619;50.140;8.518;2024-01-15T07:17:57;34.65;;;17.25;;
22904;SDS011;11619;50.140;8.518;2024-01-15T07:20:23;34.90;;;17.58;;
22904;SDS011;11619;50.140;8.518;2024-01-15T07:22:50;34.65;;;17.52;;
22904;SDS011;11619;50.140;8.518;2024-01-15T07:25:17;33.85;;;17.30;;
22904;SDS011;11619;50.140;8.518;2024-01-15T07:27:43;31.15;;;16.50;;
22904;SDS011;11619;50.140;8.518;2024-01-15T07:30:11;34.17;;;17.80;;
22904;SDS011;11619;50.140;8.518;2024-01-15T07:32:38;32.63;;;18.20;;
22904;SDS011;11619;50.140;8.518;2024-01-15T07:35:05;29.35;;;16.25;;
22904;SDS011;11619;50.140;8.518;2024-01-15T07:37:32;32.47;;;16.55;;
22904;SDS011;11619;50.140;8.518;2024-01-15T07:39:59;40.60;;;17.77;;
22904;SDS011;11619;50.140;8.518;2024-01-15T07:42:26;44.28;;;19.48;;
22904;SDS011;11619;50.140;8.518;2024-01-15T07:44:53;30.92;;;16.98;;
22904;SDS011;11619;50.140;8.518;2024-01-15T07:47:19;23.83;;;15.00;;
22904;SDS011;11619;50.140;8.518;2024-01-15T07:49:46;26.00;;;15.00;;
22904;SDS011;11619;50.140;8.518;2024-01-15T07:52:13;29.45;;;15.77;;
22904;SDS011;11619;50.140;8.518;2024-01-15T07:54:40;32.30;;;16.80;;
22904;SDS011;11619;50.140;8.518;2024-01-15T07:57:06;31.13;;;16.92;;
22904;SDS011;11619;50.140;8.518;2024-01-15T07:59:34;31.45;;;16.55;;
22904;SDS011;11619;50.140;8.518;2024-01-15T08:02:01;29.40;;;16.23;;
22904;SDS011;11619;50.140;8.518;2024-01-15T08:04:28;32.70;;;17.40;;
22904;SDS011;11619;50.140;8.518;2024-01-15T08:06:55;32.70;;;17.50;;
22904;SDS011;11619;50.140;8.518;2024-01-15T08:09:23;36.28;;;17.65;;
22904;SDS011;11619;50.140;8.518;2024-01-15T08:11:49;28.30;;;16.65;;
22904;SDS011;11619;50.140;8.518;2024-01-15T08:14:17;30.95;;;17.35;;
22904;SDS011;11619;50.140;8.518;2024-01-15T08:16:43;32.65;;;16.33;;
22904;SDS011;11619;50.140;8.518;2024-01-15T08:19:10;27.55;;;16.67;;
22904;SDS011;11619;50.140;8.518;2024-01-15T08:21:37;34.65;;;17.25;;
22904;SDS011;11619;50.140;8.518;2024-01-15T08:24:04;31.17;;;16.45;;
22904;SDS011;11619;50.140;8.518;2024-01-15T08:26:31;32.58;;;17.58;;
22904;SDS011;11619;50.140;8.518;2024-01-15T08:29:01;35.83;;;17.60;;
22904;SDS011;11619;50.140;8.518;2024-01-15T08:31:27;33.42;;;17.52;;
22904;SDS011;11619;50.140;8.518;2024-01-15T08:33:54;32.83;;;16.88;;
22904;SDS011;11619;50.140;8.518;2024-01-15T08:36:22;34.72;;;18.08;;
22904;SDS011;11619;50.140;8.518;2024-01-15T08:38:50;33.40;;;19.27;;
22904;SDS011;11619;50.140;8.518;2024-01-15T08:41:16;39.70;;;20.40;;
22904;SDS011;11619;50.140;8.518;2024-01-15T08:43:43;38.53;;;19.95;;
22904;SDS011;11619;50.140;8.518;2024-01-15T08:46:09;34.00;;;18.40;;
22904;SDS011;11619;50.140;8.518;2024-01-15T08:48:36;27.27;;;16.20;;
22904;SDS011;11619;50.140;8.518;2024-01-15T08:51:03;31.05;;;16.92;;
22904;SDS011;11619;50.140;8.518;2024-01-15T08:53:29;27.23;;;16.60;;
22904;SDS011;11619;50.140;8.518;2024-01-15T08:55:55;29.55;;;16.05;;
22904;SDS011;11619;50.140;8.518;2024-01-15T08:58:23;31.90;;;16.55;;
22904;SDS011;11619;50.140;8.518;2024-01-15T09:00:49;28.20;;;15.57;;
22904;SDS011;11619;50.140;8.518;2024-01-15T09:03:17;29.38;;;16.02;;
22904;SDS011;11619;50.140;8.518;2024-01-15T09:05:43;28.58;;;16.30;;
22904;SDS011;11619;50.140;8.518;2024-01-15T09:08:10;30.52;;;16.90;;
22904;SDS011;11619;50.140;8.518;2024-01-15T09:10:36;23.98;;;15.68;;
22904;SDS011;11619;50.140;8.518;2024-01-15T09:13:03;28.85;;;16.20;;
22904;SDS011;11619;50.140;8.518;2024-01-15T09:15:30;31.25;;;16.15;;
22904;SDS011;11619;50.140;8.518;2024-01-15T09:17:57;29.20;;;17.88;;
22904;SDS011;11619;50.140;8.518;2024-01-15T09:20:25;30.77;;;16.98;;
22904;SDS011;11619;50.140;8.518;2024-01-15T09:22:54;25.15;;;15.55;;
22904;SDS011;11619;50.140;8.518;2024-01-15T09:25:20;29.67;;;16.35;;
22904;SDS011;11619;50.140;8.518;2024-01-15T09:27:47;26.83;;;15.63;;
22904;SDS011;11619;50.140;8.518;2024-01-15T09:30:14;26.80;;;15.38;;
22904;SDS011;11619;50.140;8.518;2024-01-15T09:32:41;28.15;;;16.88;;
22904;SDS011;11619;50.140;8.518;2024-01-15T09:35:08;29.58;;;17.25;;
22904;SDS011;11619;50.140;8.518;2024-01-15T09:37:34;25.92;;;15.65;;
22904;SDS011;11619;50.140;8.518;2024-01-15T09:40:13;24.88;;;14.85;;
22904;SDS011;11619;50.140;8.518;2024-01-15T09:42:43;23.42;;;14.68;;
22904;SDS011;11619;50.140;8.518;2024-01-15T09:45:10;25.30;;;14.65;;
22904;SDS011;11619;50.140;8.518;2024-01-15T09:47:37;27.13;;;15.95;;
22904;SDS011;11619;50.140;8.518;2024-01-15T09:50:10;23.90;;;14.98;;
22904;SDS011;11619;50.140;8.518;2024-01-15T09:52:37;25.92;;;15.00;;
22904;SDS011;11619;50.140;8.518;2024-01-15T09:55:03;24.40;;;14.05;;
22904;SDS011;11619;50.140;8.518;2024-01-15T09:57:31;24.30;;;15.07;;
22904;SDS011;11619;50.140;8.518;2024-01-15T09:59:59;22.08;;;14.70;;
22904;SDS011;11619;50.140;8.518;2024-01-15T10:02:30;26.00;;;14.60;;
22904;SDS011;11619;50.140;8.518;2024-01-15T10:04:57;23.45;;;14.45;;
22904;SDS011;11619;50.140;8.518;2024-01-15T10:07:23;22.02;;;13.68;;
22904;SDS011;11619;50.140;8.518;2024-01-15T10:09:51;24.17;;;14.98;;
22904;SDS011;11619;50.140;8.518;2024-01-15T10:12:18;25.45;;;15.27;;
22904;SDS011;11619;50.140;8.518;2024-01-15T10:14:45;23.15;;;14.00;;
22904;SDS011;11619;50.140;8.518;2024-01-15T10:17:12;22.80;;;14.70;;
22904;SDS011;11619;50.140;8.518;2024-01-15T10:19:42;24.73;;;14.30;;
22904;SDS011;11619;50.140;8.518;2024-01-15T10:22:14;23.73;;;15.10;;
22904;SDS011;11619;50.140;8.518;2024-01-15T10:24:49;21.27;;;13.65;;
22904;SDS011;11619;50.140;8.518;2024-01-15T10:27:17;22.15;;;13.88;;
22904;SDS011;11619;50.140;8.518;2024-01-15T10:29:44;24.15;;;14.65;;
22904;SDS011;11619;50.140;8.518;2024-01-15T10:32:10;23.05;;;13.75;;
22904;SDS011;11619;50.140;8.518;2024-01-15T10:34:37;25.67;;;15.10;;
22904;SDS011;11619;50.140;8.518;2024-01-15T10:37:08;24.15;;;14.40;;
22904;SDS011;11619;50.140;8.518;2024-01-15T10:39:36;19.20;;;13.52;;
22904;SDS011;11619;50.140;8.518;2024-01-15T10:42:03;22.48;;;13.65;;
22904;SDS011;11619;50.140;8.518;2024-01-15T10:44:30;20.23;;;12.38;;
22904;SDS011;11619;50.140;8.518;2024-01-15T10:46:56;19.48;;;12.40;;
22904;SDS011;11619;50.140;8.518;2024-01-15T10:49:23;20.58;;;13.18;;
22904;SDS011;11619;50.140;8.518;2024-01-15T10:51:58;20.75;;;12.52;;
22904;SDS011;11619;50.140;8.518;2024-01-15T10:54:24;20.95;;;13.10;;
22904;SDS011;11619;50.140;8.518;2024-01-15T10:56:53;21.55;;;13.55;;
22904;SDS011;11619;50.140;8.518;2024-01-15T10:59:22;20.30;;;13.00;;
22904;SDS011;11619;50.140;8.518;2024-01-15T11:01:49;17.63;;;12.35;;
22904;SDS011;11619;50.140;8.518;2024-01-15T11:04:16;19.52;;;12.75;;
22904;SDS011;11619;50.140;8.518;2024-01-15T11:06:47;18.88;;;12.90;;
22904;SDS011;11619;50.140;8.518;2024-01-15T11:09:16;18.27;;;12.38;;
22904;SDS011;11619;50.140;8.518;2024-01-15T11:11:45;20.67;;;13.23;;
22904;SDS011;11619;50.140;8.518;2024-01-15T11:14:34;18.00;;;12.10;;
22904;SDS011;11619;50.140;8.518;2024-01-15T11:17:10;19.63;;;11.15;;
22904;SDS011;11619;50.140;8.518;2024-01-15T11:22:47;16.70;;;11.45;;
22904;SDS011;11619;50.140;8.518;2024-01-15T11:25:05;16.33;;;11.30;;
22904;SDS011;11619;50.140;8.518;2024-01-15T11:27:46;19.38;;;12.27;;
22904;SDS011;11619;50.140;8.518;2024-01-15T11:30:14;16.42;;;11.18;;
22904;SDS011;11619;50.140;8.518;2024-01-15T11:32:41;20.75;;;12.82;;
22904;SDS011;11619;50.140;8.518;2024-01-15T11:35:09;17.55;;;11.30;;
22904;SDS011;11619;50.140;8.518;2024-01-15T11:37:56;18.00;;;12.15;;
22904;SDS011;11619;50.140;8.518;2024-01-15T11:42:59;15.98;;;11.45;;
22904;SDS011;11619;50.140;8.518;2024-01-15T11:45:26;18.40;;;10.75;;
22904;SDS011;11619;50.140;8.518;2024-01-15T11:48:09;19.33;;;11.93;;
22904;SDS011;11619;50.140;8.518;2024-01-15T11:53:17;19.33;;;11.75;;
22904;SDS011;11619;50.140;8.518;2024-01-15T11:58:15;18.40;;;12.20;;
22904;SDS011;11619;50.140;8.518;2024-01-15T12:00:42;19.13;;;12.13;;
22904;SDS011;11619;50.140;8.518;2024-01-15T12:03:10;17.73;;;11.88;;
22904;SDS011;11619;50.140;8.518;2024-01-15T12:05:37;19.45;;;11.18;;
22904;SDS011;11619;50.140;8.518;2024-01-15T12:08:05;17.33;;;11.68;;
22904;SDS011;11619;50.140;8.518;2024-01-15T12:10:38;15.82;;;11.05;;
22904;SDS011;11619;50.140;8.518;2024-01-15T12:13:10;16.98;;;10.88;;
22904;SDS011;11619;50.140;8.518;2024-01-15T12:15:41;16.95;;;11.15;;
22904;SDS011;11619;50.140;8.518;2024-01-15T12:18:09;18.77;;;11.48;;
22904;SDS011;11619;50.140;8.518;2024-01-15T12:20:36;15.60;;;10.43;;
22904;SDS011;11619;50.140;8.518;2024-01-15T12:23:03;15.40;;;10.55;;
22904;SDS011;11619;50.140;8.518;2024-01-15T12:25:33;12.80;;;9.90;;
22904;SDS011;11619;50.140;8.518;2024-01-15T12:28:00;14.45;;;10.57;;
22904;SDS011;11619;50.140;8.518;2024-01-15T12:30:28;14.48;;;9.88;;
22904;SDS011;11619;50.140;8.518;2024-01-15T12:32:55;15.80;;;10.02;;
22904;SDS011;11619;50.140;8.518;2024-01-15T12:35:23;15.15;;;9.85;;
22904;SDS011;11619;50.140;8.518;2024-01-15T12:37:50;18.73;;;11.23;;
22904;SDS011;11619;50.140;8.518;2024-01-15T12:40:20;13.43;;;9.60;;
22904;SDS011;11619;50.140;8.518;2024-01-15T12:42:47;14.48;;;10.52;;
22904;SDS011;11619;50.140;8.518;2024-01-15T12:45:14;14.32;;;9.38;;
22904;SDS011;11619;50.140;8.518;2024-01-15T12:47:41;14.05;;;9.73;;
22904;SDS011;11619;50.140;8.518;2024-01-15T12:50:09;14.70;;;9.00;;
22904;SDS011;11619;50.140;8.518;2024-01-15T12:52:45;11.52;;;8.73;;
22904;SDS011;11619;50.140;8.518;2024-01-15T12:55:11;13.75;;;9.25;;
22904;SDS011;11619;50.140;8.518;2024-01-15T12:57:38;11.75;;;8.23;;
22904;SDS011;11619;50.140;8.518;2024-01-15T13:00:05;11.00;;;7.78;;
22904;SDS011;11619;50.140;8.518;2024-01-15T13:02:39;10.38;;;6.88;;
22904;SDS011;11619;50.140;8.518;2024-01-15T13:05:10;9.77;;;6.93;;
22904;SDS011;11619;50.140;8.518;2024-01-15T13:07:41;11.65;;;7.03;;
22904;SDS011;11619;50.140;8.518;2024-01-15T13:10:08;9.93;;;6.95;;
22904;SDS011;11619;50.140;8.518;2024-01-15T13:12:36;11.90;;;6.88;;
22904;SDS011;11619;50.140;8.518;2024-01-15T13:15:03;11.10;;;7.82;;
22904;SDS011;11619;50.140;8.518;2024-01-15T13:17:30;11.05;;;6.43;;
22904;SDS011;11619;50.140;8.518;2024-01-15T13:19:57;13.27;;;7.43;;
22904;SDS011;11619;50.140;8.518;2024-01-15T13:22:23;12.25;;;7.30;;
22904;SDS011;11619;50.140;8.518;2024-01-15T13:24:55;8.85;;;6.22;;
22904;SDS011;11619;50.140;8.518;2024-01-15T13:27:22;9.10;;;6.32;;
22904;SDS011;11619;50.140;8.518;2024-01-15T13:29:48;10.18;;;6.30;;
22904;SDS011;11619;50.140;8.518;2024-01-15T13:32:16;7.95;;;6.35;;
22904;SDS011;11619;50.140;8.518;2024-01-15T13:34:46;10.13;;;6.43;;
22904;SDS011;11619;50.140;8.518;2024-01-15T13:37:13;8.48;;;6.63;;
22904;SDS011;11619;50.140;8.518;2024-01-15T13:39:39;10.98;;;7.65;;
22904;SDS011;11619;50.140;8.518;2024-01-15T13:42:06;9.48;;;6.85;;
22904;SDS011;11619;50.140;8.518;2024-01-15T13:44:32;8.82;;;6.18;;
22904;SDS011;11619;50.140;8.518;2024-01-15T13:46:59;8.73;;;6.05;;
22904;SDS011;11619;50.140;8.518;2024-01-15T13:49:25;6.97;;;5.15;;
22904;SDS011;11619;50.140;8.518;2024-01-15T13:51:52;8.75;;;6.15;;
22904;SDS011;11619;50.140;8.518;2024-01-15T13:54:19;6.95;;;5.47;;
22904;SDS011;11619;50.140;8.518;2024-01-15T13:56:49;6.57;;;4.88;;
22904;SDS011;11619;50.140;8.518;2024-01-15T13:59:16;9.60;;;4.78;;
22904;SDS011;11619;50.140;8.518;2024-01-15T14:01:42;6.65;;;4.40;;
22904;SDS011;11619;50.140;8.518;2024-01-15T14:04:09;8.60;;;4.43;;
22904;SDS011;11619;50.140;8.518;2024-01-15T14:06:35;6.43;;;4.22;;
22904;SDS011;11619;50.140;8.518;2024-01-15T14:09:02;7.50;;;4.80;;
22904;SDS011;11619;50.140;8.518;2024-01-15T14:11:31;9.23;;;5.05;;
22904;SDS011;11619;50.140;8.518;2024-01-15T14:13:59;5.97;;;4.45;;
22904;SDS011;11619;50.140;8.518;2024-01-15T14:16:26;7.68;;;4.40;;
22904;SDS011;11619;50.140;8.518;2024-01-15T14:18:52;6.35;;;4.07;;
22904;SDS011;11619;50.140;8.518;2024-01-15T14:21:19;6.15;;;4.28;;
22904;SDS011;11619;50.140;8.518;2024-01-15T14:23:45;9.75;;;4.28;;
22904;SDS011;11619;50.140;8.518;2024-01-15T14:26:12;8.43;;;4.45;;
22904;SDS011;11619;50.140;8.518;2024-01-15T14:28:40;8.68;;;4.72;;
22904;SDS011;11619;50.140;8.518;2024-01-15T14:31:09;10.80;;;5.40;;
22904;SDS011;11619;50.140;8.518;2024-01-15T14:33:35;8.98;;;4.78;;
22904;SDS011;11619;50.140;8.518;2024-01-15T14:36:05;9.13;;;4.90;;